Phoenix, Arizona
Current Conditions -  °F | °C
As of 1:51 PM on Tuesday 21 Oct 2014 (Local Time) from KPHX Reporting Station
Scattered Clouds Scattered Clouds  
Wind Chill: 88°   Ceiling: Unl
Heat Index: 88°   Visibility: 10mi
Dew Point: 50°   Wind: 0mph
Humidity: 27%   Direction: NA
Pressure: 29.81"   Gusts: NA
Location:  33.45°N, 112.08°W
Report Text: KPHX 212051Z 00000KT 10SM FEW080 SCT250 31/10 A2981 RMK AO2 SLP076 T03110100 58027 $
Loading
Personal Weather Stations






























Interactive Weather Map
Tropical Storm Tracking
New forecast layout! Learn more

10-Day Weather Forecast

Advertisements
Track Severe Weather on mobile